sensor_id;sensor_type;location;lat;lon;timestamp;pressure;altitude;pressure_sealevel;temperature;humidity
33486;BME280;19824;52.098;5.004;2023-04-03T05:02:40;103259.72;;;3.77;79.12
33486;BME280;19824;52.098;5.004;2023-04-03T05:05:23;103260.59;;;3.78;79.03
33486;BME280;19824;52.098;5.004;2023-04-03T05:08:00;103256.94;;;3.83;78.71
33486;BME280;19824;52.098;5.004;2023-04-03T05:10:31;103269.28;;;3.80;79.25
33486;BME280;19824;52.098;5.004;2023-04-03T05:13:08;103271.69;;;3.88;78.15
33486;BME280;19824;52.098;5.004;2023-04-03T05:15:38;103272.53;;;3.90;77.42
33486;BME280;19824;52.098;5.004;2023-04-03T05:18:17;103276.69;;;3.97;77.19
33486;BME280;19824;52.098;5.004;2023-04-03T05:20:54;103276.69;;;3.97;77.28
33486;BME280;19824;52.098;5.004;2023-04-03T05:23:31;103282.16;;;3.91;78.03
33486;BME280;19824;52.098;5.004;2023-04-03T05:26:01;103287.44;;;3.91;78.19
33486;BME280;19824;52.098;5.004;2023-04-03T05:28:38;103289.06;;;3.95;77.96
33486;BME280;19824;52.098;5.004;2023-04-03T05:31:08;103296.16;;;3.93;78.76
33486;BME280;19824;52.098;5.004;2023-04-03T05:33:48;103298.63;;;3.99;78.17
33486;BME280;19824;52.098;5.004;2023-04-03T05:36:18;103294.09;;;4.04;78.13
33486;BME280;19824;52.098;5.004;2023-04-03T05:38:56;103298.66;;;3.98;79.31
33486;BME280;19824;52.098;5.004;2023-04-03T05:41:26;103299.44;;;4.01;78.92
33486;BME280;19824;52.098;5.004;2023-04-03T05:44:03;103295.75;;;4.08;78.67
33486;BME280;19824;52.098;5.004;2023-04-03T05:46:40;103304.59;;;4.36;79.18
33486;BME280;19824;52.098;5.004;2023-04-03T05:49:12;103305.91;;;5.08;77.83
33486;BME280;19824;52.098;5.004;2023-04-03T05:51:50;103296.63;;;5.75;77.06
33486;BME280;19824;52.098;5.004;2023-04-03T05:54:25;103303.63;;;6.01;76.89
33486;BME280;19824;52.098;5.004;2023-04-03T05:57:02;103297.78;;;6.16;76.58
33486;BME280;19824;52.098;5.004;2023-04-03T05:59:32;103304.16;;;5.86;76.13
33486;BME280;19824;52.098;5.004;2023-04-03T06:02:11;103315.91;;;5.78;75.56
33486;BME280;19824;52.098;5.004;2023-04-03T06:04:45;103304.44;;;5.52;76.36
33486;BME280;19824;52.098;5.004;2023-04-03T06:07:24;103299.81;;;5.32;76.62
33486;BME280;19824;52.098;5.004;2023-04-03T06:09:57;103300.88;;;5.53;76.69
33486;BME280;19824;52.098;5.004;2023-04-03T06:12:34;103307.88;;;6.30;75.79
33486;BME280;19824;52.098;5.004;2023-04-03T06:15:08;103310.44;;;7.21;74.00
33486;BME280;19824;52.098;5.004;2023-04-03T06:17:45;103304.13;;;8.06;73.95
33486;BME280;19824;52.098;5.004;2023-04-03T06:20:18;103295.81;;;8.72;71.47
33486;BME280;19824;52.098;5.004;2023-04-03T06:22:56;103301.38;;;9.21;69.99
33486;BME280;19824;52.098;5.004;2023-04-03T06:25:26;103302.69;;;9.82;69.36
33486;BME280;19824;52.098;5.004;2023-04-03T06:28:03;103306.69;;;10.24;67.68
33486;BME280;19824;52.098;5.004;2023-04-03T06:30:41;103310.59;;;10.82;67.09
33486;BME280;19824;52.098;5.004;2023-04-03T06:33:11;103303.13;;;11.19;65.11
33486;BME280;19824;52.098;5.004;2023-04-03T06:35:57;103307.91;;;11.44;61.82
33486;BME280;19824;52.098;5.004;2023-04-03T06:38:34;103306.28;;;11.86;61.78
33486;BME280;19824;52.098;5.004;2023-04-03T06:41:05;103305.28;;;12.02;58.59
33486;BME280;19824;52.098;5.004;2023-04-03T06:43:42;103304.81;;;12.24;57.13
33486;BME280;19824;52.098;5.004;2023-04-03T06:46:21;103311.72;;;12.42;55.54
33486;BME280;19824;52.098;5.004;2023-04-03T06:48:53;103312.56;;;12.98;56.87
33486;BME280;19824;52.098;5.004;2023-04-03T06:51:33;103319.03;;;13.08;54.07
33486;BME280;19824;52.098;5.004;2023-04-03T06:54:04;103324.56;;;13.45;54.25
33486;BME280;19824;52.098;5.004;2023-04-03T06:56:42;103335.19;;;13.73;53.25
33486;BME280;19824;52.098;5.004;2023-04-03T06:59:12;103328.34;;;14.20;52.22
33486;BME280;19824;52.098;5.004;2023-04-03T07:01:50;103321.19;;;14.58;51.55
33486;BME280;19824;52.098;5.004;2023-04-03T07:04:21;103323.13;;;14.92;50.42
33486;BME280;19824;52.098;5.004;2023-04-03T07:07:00;103322.63;;;15.23;49.18
33486;BME280;19824;52.098;5.004;2023-04-03T07:09:30;103320.28;;;15.31;47.58
33486;BME280;19824;52.098;5.004;2023-04-03T07:12:11;103322.63;;;15.59;46.63
33486;BME280;19824;52.098;5.004;2023-04-03T07:14:41;103327.03;;;15.36;46.10
33486;BME280;19824;52.098;5.004;2023-04-03T07:17:18;103330.56;;;15.60;45.67
33486;BME280;19824;52.098;5.004;2023-04-03T07:19:48;103333.84;;;16.10;45.56
33486;BME280;19824;52.098;5.004;2023-04-03T07:22:27;103336.13;;;16.38;43.90
33486;BME280;19824;52.098;5.004;2023-04-03T07:25:06;103329.91;;;16.49;43.91
33486;BME280;19824;52.098;5.004;2023-04-03T07:27:36;103335.44;;;16.58;43.33
33486;BME280;19824;52.098;5.004;2023-04-03T07:30:13;103325.50;;;16.69;43.05
33486;BME280;19824;52.098;5.004;2023-04-03T07:32:44;103323.19;;;16.65;42.40
33486;BME280;19824;52.098;5.004;2023-04-03T07:35:21;103326.25;;;16.82;42.77
33486;BME280;19824;52.098;5.004;2023-04-03T07:37:54;103325.56;;;17.23;41.31
33486;BME280;19824;52.098;5.004;2023-04-03T07:40:32;103334.31;;;16.93;39.87
33486;BME280;19824;52.098;5.004;2023-04-03T07:43:02;103336.88;;;17.17;40.61
33486;BME280;19824;52.098;5.004;2023-04-03T07:45:39;103340.28;;;16.75;39.09
33486;BME280;19824;52.098;5.004;2023-04-03T07:48:13;103343.50;;;16.58;39.50
33486;BME280;19824;52.098;5.004;2023-04-03T07:50:50;103340.78;;;16.80;40.04
33486;BME280;19824;52.098;5.004;2023-04-03T07:53:23;103337.84;;;16.61;38.67
33486;BME280;19824;52.098;5.004;2023-04-03T07:56:00;103341.41;;;16.94;39.84
33486;BME280;19824;52.098;5.004;2023-04-03T07:58:30;103335.84;;;17.29;39.32
33486;BME280;19824;52.098;5.004;2023-04-03T08:01:07;103342.56;;;17.45;37.89
33486;BME280;19824;52.098;5.004;2023-04-03T08:03:38;103346.63;;;17.40;37.77
33486;BME280;19824;52.098;5.004;2023-04-03T08:06:15;103346.63;;;17.40;36.85
33486;BME280;19824;52.098;5.004;2023-04-03T08:09:02;103353.97;;;17.27;35.51
33486;BME280;19824;52.098;5.004;2023-04-03T08:11:40;103353.47;;;17.44;36.64
33486;BME280;19824;52.098;5.004;2023-04-03T08:14:17;103353.72;;;17.52;35.99
33486;BME280;19824;52.098;5.004;2023-04-03T08:16:48;103342.03;;;17.93;36.25
33486;BME280;19824;52.098;5.004;2023-04-03T08:19:25;103351.47;;;18.40;35.36
33486;BME280;19824;52.098;5.004;2023-04-03T08:21:56;103347.50;;;18.64;34.16
33486;BME280;19824;52.098;5.004;2023-04-03T08:24:36;103347.81;;;18.91;34.47
33486;BME280;19824;52.098;5.004;2023-04-03T08:27:18;103351.41;;;19.40;34.32
33486;BME280;19824;52.098;5.004;2023-04-03T08:29:55;103362.72;;;18.95;33.50
33486;BME280;19824;52.098;5.004;2023-04-03T08:32:26;103356.09;;;19.38;34.01
33486;BME280;19824;52.098;5.004;2023-04-03T08:35:06;103362.22;;;19.50;33.03
33486;BME280;19824;52.098;5.004;2023-04-03T08:37:36;103361.25;;;19.60;32.15
33486;BME280;19824;52.098;5.004;2023-04-03T08:40:16;103361.81;;;19.54;31.88
33486;BME280;19824;52.098;5.004;2023-04-03T08:42:58;103364.63;;;19.43;29.60
33486;BME280;19824;52.098;5.004;2023-04-03T08:45:45;103367.75;;;19.29;29.83
33486;BME280;19824;52.098;5.004;2023-04-03T08:48:21;103368.91;;;19.46;30.53
33486;BME280;19824;52.098;5.004;2023-04-03T08:51:03;103365.06;;;19.48;30.80
33486;BME280;19824;52.098;5.004;2023-04-03T08:53:43;103366.38;;;19.72;30.38
33486;BME280;19824;52.098;5.004;2023-04-03T08:56:25;103375.44;;;19.04;27.61
33486;BME280;19824;52.098;5.004;2023-04-03T08:58:59;103378.25;;;18.72;25.97
33486;BME280;19824;52.098;5.004;2023-04-03T09:01:39;103356.44;;;18.85;27.48
33486;BME280;19824;52.098;5.004;2023-04-03T09:04:13;103369.13;;;18.23;26.58
33486;BME280;19824;52.098;5.004;2023-04-03T09:06:56;103375.88;;;17.86;26.46
33486;BME280;19824;52.098;5.004;2023-04-03T09:09:33;103369.22;;;18.22;27.37
33486;BME280;19824;52.098;5.004;2023-04-03T09:12:23;103363.38;;;17.85;26.22
33486;BME280;19824;52.098;5.004;2023-04-03T09:15:04;103364.72;;;17.91;26.56
33486;BME280;19824;52.098;5.004;2023-04-03T09:17:57;103371.13;;;18.10;26.51
33486;BME280;19824;52.098;5.004;2023-04-03T09:20:41;103365.97;;;18.59;26.69
33486;BME280;19824;52.098;5.004;2023-04-03T09:23:26;103359.91;;;18.26;25.46
33486;BME280;19824;52.098;5.004;2023-04-03T09:26:02;103373.59;;;18.13;25.35
33486;BME280;19824;52.098;5.004;2023-04-03T09:28:44;103360.97;;;17.40;25.26
33486;BME280;19824;52.098;5.004;2023-04-03T09:31:24;103368.97;;;17.73;26.15
33486;BME280;19824;52.098;5.004;2023-04-03T09:34:07;103353.50;;;18.06;24.85
33486;BME280;19824;52.098;5.004;2023-04-03T09:36:48;103358.88;;;18.06;26.12
33486;BME280;19824;52.098;5.004;2023-04-03T09:39:21;103364.06;;;18.30;25.88
33486;BME280;19824;52.098;5.004;2023-04-03T09:42:01;103348.75;;;18.51;24.50
33486;BME280;19824;52.098;5.004;2023-04-03T09:44:37;103342.53;;;18.60;24.78
33486;BME280;19824;52.098;5.004;2023-04-03T09:47:21;103339.38;;;18.34;23.66
33486;BME280;19824;52.098;5.004;2023-04-03T09:50:19;103343.00;;;18.24;23.72
33486;BME280;19824;52.098;5.004;2023-04-03T09:52:56;103336.72;;;18.64;23.86
33486;BME280;19824;52.098;5.004;2023-04-03T09:55:27;103345.06;;;18.52;24.77
33486;BME280;19824;52.098;5.004;2023-04-03T09:58:05;103331.44;;;18.22;24.68
33486;BME280;19824;52.098;5.004;2023-04-03T10:01:02;103339.63;;;18.31;23.97
33486;BME280;19824;52.098;5.004;2023-04-03T10:03:40;103336.00;;;17.69;24.55
33486;BME280;19824;52.098;5.004;2023-04-03T10:06:23;103331.72;;;17.36;23.90
33486;BME280;19824;52.098;5.004;2023-04-03T10:09:03;103322.69;;;18.40;23.95
33486;BME280;19824;52.098;5.004;2023-04-03T10:11:35;103324.06;;;18.35;24.96
33486;BME280;19824;52.098;5.004;2023-04-03T10:14:17;103308.19;;;18.41;23.98
33486;BME280;19824;52.098;5.004;2023-04-03T10:16:56;103298.50;;;18.39;24.67
33486;BME280;19824;52.098;5.004;2023-04-03T10:19:42;103304.13;;;18.86;23.91
33486;BME280;19824;52.098;5.004;2023-04-03T10:22:22;103312.53;;;18.12;23.89
33486;BME280;19824;52.098;5.004;2023-04-03T10:25:10;103320.75;;;17.48;24.48
33486;BME280;19824;52.098;5.004;2023-04-03T10:27:57;103304.94;;;17.55;24.28
33486;BME280;19824;52.098;5.004;2023-04-03T10:30:38;103301.25;;;17.56;25.43
33486;BME280;19824;52.098;5.004;2023-04-03T10:33:36;103303.22;;;17.54;24.81
33486;BME280;19824;52.098;5.004;2023-04-03T10:36:31;103287.84;;;17.45;24.02
33486;BME280;19824;52.098;5.004;2023-04-03T10:39:15;103296.06;;;17.95;24.26
33486;BME280;19824;52.098;5.004;2023-04-03T10:42:03;103290.72;;;17.84;23.89
33486;BME280;19824;52.098;5.004;2023-04-03T10:45:00;103283.44;;;17.95;23.50
33486;BME280;19824;52.098;5.004;2023-04-03T10:47:44;103280.41;;;18.09;24.18
33486;BME280;19824;52.098;5.004;2023-04-03T10:50:32;103294.16;;;17.55;22.71
33486;BME280;19824;52.098;5.004;2023-04-03T10:53:22;103291.53;;;17.75;24.35
33486;BME280;19824;52.098;5.004;2023-04-03T10:56:00;103278.75;;;17.77;23.97
33486;BME280;19824;52.098;5.004;2023-04-03T10:58:43;103282.38;;;17.67;23.42
33486;BME280;19824;52.098;5.004;2023-04-03T11:01:16;103285.16;;;17.96;24.24
33486;BME280;19824;52.098;5.004;2023-04-03T11:03:58;103281.75;;;17.94;23.95
33486;BME280;19824;52.098;5.004;2023-04-03T11:06:39;103285.00;;;17.77;22.89
33486;BME280;19824;52.098;5.004;2023-04-03T11:09:23;103281.59;;;18.16;23.19
33486;BME280;19824;52.098;5.004;2023-04-03T11:12:00;103274.88;;;18.11;22.19
33486;BME280;19824;52.098;5.004;2023-04-03T11:14:39;103287.53;;;18.10;23.01
33486;BME280;19824;52.098;5.004;2023-04-03T11:17:19;103279.53;;;18.09;22.68
33486;BME280;19824;52.098;5.004;2023-04-03T11:20:06;103285.88;;;18.39;22.87
33486;BME280;19824;52.098;5.004;2023-04-03T11:22:45;103271.34;;;18.10;22.00
33486;BME280;19824;52.098;5.004;2023-04-03T11:25:25;103270.06;;;18.14;21.74
33486;BME280;19824;52.098;5.004;2023-04-03T11:28:06;103286.88;;;18.18;21.42
33486;BME280;19824;52.098;5.004;2023-04-03T11:30:43;103261.34;;;18.01;21.86
33486;BME280;19824;52.098;5.004;2023-04-03T11:33:33;103263.16;;;18.42;22.02
33486;BME280;19824;52.098;5.004;2023-04-03T11:36:10;103259.09;;;18.57;22.25
33486;BME280;19824;52.098;5.004;2023-04-03T11:39:07;103257.66;;;18.02;21.49
33486;BME280;19824;52.098;5.004;2023-04-03T11:41:40;103248.78;;;17.70;22.73
33486;BME280;19824;52.098;5.004;2023-04-03T11:44:33;103268.63;;;17.69;22.71
33486;BME280;19824;52.098;5.004;2023-04-03T11:47:04;103255.09;;;17.07;22.17
33486;BME280;19824;52.098;5.004;2023-04-03T11:50:00;103250.34;;;17.10;23.17
33486;BME280;19824;52.098;5.004;2023-04-03T11:53:03;103254.44;;;16.83;23.69
33486;BME280;19824;52.098;5.004;2023-04-03T11:55:54;103243.88;;;17.02;23.88
33486;BME280;19824;52.098;5.004;2023-04-03T11:58:33;103235.66;;;17.03;24.49
33486;BME280;19824;52.098;5.004;2023-04-03T12:01:10;103254.41;;;17.05;23.76
33486;BME280;19824;52.098;5.004;2023-04-03T12:04:09;103240.38;;;16.79;23.93
33486;BME280;19824;52.098;5.004;2023-04-03T12:07:18;103230.72;;;16.55;23.95
33486;BME280;19824;52.098;5.004;2023-04-03T12:09:58;103229.50;;;16.37;24.16
33486;BME280;19824;52.098;5.004;2023-04-03T12:12:40;103209.56;;;16.40;25.80
33486;BME280;19824;52.098;5.004;2023-04-03T12:18:43;103224.28;;;16.36;25.18
33486;BME280;19824;52.098;5.004;2023-04-03T12:21:14;103210.69;;;16.37;25.33
33486;BME280;19824;52.098;5.004;2023-04-03T12:24:02;103203.19;;;16.08;25.41
33486;BME280;19824;52.098;5.004;2023-04-03T12:26:40;103193.31;;;16.08;26.59
33486;BME280;19824;52.098;5.004;2023-04-03T12:29:24;103202.06;;;15.99;26.62
33486;BME280;19824;52.098;5.004;2023-04-03T12:32:09;103203.16;;;15.86;25.88
33486;BME280;19824;52.098;5.004;2023-04-03T12:35:14;103176.84;;;15.67;26.52
33486;BME280;19824;52.098;5.004;2023-04-03T12:38:14;103191.06;;;15.35;27.13
33486;BME280;19824;52.098;5.004;2023-04-03T12:40:58;103181.19;;;15.36;26.96
33486;BME280;19824;52.098;5.004;2023-04-03T12:43:56;103176.19;;;15.42;27.00
33486;BME280;19824;52.098;5.004;2023-04-03T12:46:37;103176.06;;;15.44;26.72
33486;BME280;19824;52.098;5.004;2023-04-03T12:49:35;103183.97;;;14.87;27.28
33486;BME280;19824;52.098;5.004;2023-04-03T12:52:19;103173.06;;;14.78;27.62
33486;BME280;19824;52.098;5.004;2023-04-03T12:55:00;103179.63;;;14.97;28.02
33486;BME280;19824;52.098;5.004;2023-04-03T12:57:32;103170.94;;;14.70;27.62
33486;BME280;19824;52.098;5.004;2023-04-03T13:00:29;103167.56;;;14.56;27.34
